Oazy Harbour Airport

CL-0005 · Region of Magallanes, Chile

Historia METAR CL-0005 · Oazy Harbour Airport

Poniżej widzisz METAR-y z ostatnich kilku dni. Wybierz rok, aby przeglądać starsze METAR-y, począwszy od roku 2007.

19 maja 2024

Czas Kod Pogoda Temp. Widoczność Sufit Wiatr METAR/SPECI
10:00
V
2 °C 10 km+ - 270° 270° 7 kt METAR SCCI 191300Z 27007KT CAVOK 02/00 Q1005 NOSIG
09:00
V
3 °C 10 km+ 14.000 ft 320° 320° 9 kt METAR SCCI 191200Z 32009KT 9999 SCT049 BKN140 03/01 Q1006 NOSIG
08:00
V
1 °C 10 km+ 14.000 ft 280° 280° 7 kt METAR SCCI 191100Z 28007KT 9999 SCT049 BKN140 01/M01 Q1007 NOSIG
07:00
V
1 °C 10 km+ - 320° 320° 8 kt METAR SCCI 191000Z 32008KT 9999 SCT049 SCT160 01/M00 Q1008 NOSIG
06:00
V
1 °C 10 km+ - 290° 290° 6 kt METAR SCCI 190900Z 29006KT 9999 FEW040 SCT150 01/M01 Q1008 NOSIG
05:00
V
1 °C 10 km+ 16.000 ft 290° 290° 4 kt METAR SCCI 190800Z 29004KT 9999 FEW040 OVC160 01/00 Q1009 NOSIG
04:00
V
2 °C 10 km+ 17.000 ft 270° 270° 7 kt METAR SCCI 190700Z 27007KT 240V300 9999 FEW040 OVC170 02/01 Q1010 NOSIG
03:00
V
2 °C 10 km+ 17.000 ft 290° 290° 7 kt METAR SCCI 190600Z 29007KT 9999 FEW040 BKN170 OVC240 02/01 Q1011 NOSIG
02:00
V
2 °C 10 km+ 19.000 ft 290° 290° 8 kt METAR SCCI 190500Z 29008KT 9999 FEW030 SCT160 BKN190 02/01 Q1012 NOSIG
01:00
V
1 °C 10 km+ 18.000 ft 290° 290° 6 kt METAR SCCI 190400Z 29006KT 9999 FEW030 BKN180 01/M00 Q1013 NOSIG
00:00
V
1 °C 10 km+ 17.000 ft 250° 250° 4 kt METAR SCCI 190300Z 25004KT 9999 FEW030 BKN170 BKN200 01/M01 Q1013 NOSIG

18 maja 2024

Czas Kod Pogoda Temp. Widoczność Sufit Wiatr METAR/SPECI
23:00
V
2 °C 10 km+ 20.000 ft 280° 280° 3 kt METAR SCCI 190200Z 28003KT 9999 FEW030 SCT180 BKN200 02/00 Q1014 NOSIG
22:00
V
3 °C 10 km+ 20.000 ft 280° 280° 4 kt METAR SCCI 190100Z 28004KT 9999 FEW030 BKN200 03/01 Q1014 NOSIG
21:00
V
5 °C 10 km+ 18.000 ft 270° 270° 6 kt METAR SCCI 190000Z 27006KT 9999 FEW029 BKN180 BKN210 05/03 Q1014 NOSIG
20:00
M
5 °C 10 km+ 3.000 ft 280° 280° 6 kt METAR SCCI 182300Z 28006KT 9999 BKN030 SCT220 05/03 Q1015 NOSIG
19:00
V
6 °C 10 km+ 3.500 ft 300° 300° 7 kt METAR SCCI 182200Z 30007KT 9999 BKN035 06/03 Q1015 NOSIG
18:00
V
7 °C 10 km+ 22.000 ft 290° 290° 5 kt METAR SCCI 182100Z 29005KT 9999 SCT040 BKN220 07/03 Q1015 NOSIG
17:00
V
9 °C 10 km+ - 260° 260° 10 kt METAR SCCI 182000Z 26010KT CAVOK 09/03 Q1015 NOSIG
16:00
V
9 °C 10 km+ - 280° 280° 10 kt METAR SCCI 181900Z 28010KT CAVOK 09/04 Q1015 NOSIG
15:00
V
9 °C 10 km+ - 270° 270° 14 kt METAR SCCI 181800Z 27014KT CAVOK 09/03 Q1015 NOSIG
14:00
V
9 °C 10 km+ - 270° 270° 11 kt METAR SCCI 181700Z 27011KT CAVOK 09/04 Q1016 NOSIG
13:00
V
8 °C 10 km+ 23.000 ft 270° 270° 6 kt METAR SCCI 181600Z 27006KT 240V330 9999 FEW025 BKN230 08/04 Q1016 NOSIG
12:00
V
7 °C 10 km+ 22.000 ft 310° 310° 4 kt METAR SCCI 181500Z 31004KT 9999 FEW025 BKN220 07/04 Q1017 NOSIG
11:00
V
5 °C 10 km+ 22.000 ft 340° 340° 4 kt METAR SCCI 181400Z 34004KT 9999 FEW020 BKN220 05/03 Q1017 NOSIG
10:00
V
5 °C 10 km+ 22.000 ft 290° 290° 7 kt METAR SCCI 181300Z 29007KT 9999 FEW020 BKN220 05/03 Q1017 NOSIG
09:00
V
5 °C 10 km+ 22.000 ft 310° 310° 10 kt METAR SCCI 181200Z 31010KT 9999 SCT020 BKN220 05/03 Q1017 NOSIG
08:00
V
3 °C 10 km+ 20.000 ft 030° 030° 6 kt METAR SCCI 181100Z 03006KT 9999 FEW021 SCT045 BKN200 03/02 Q1017 NOSIG
07:00
V
5 °C 10 km+ 4.500 ft 300° 300° 7 kt METAR SCCI 181000Z 30007KT 9999 BKN045 05/03 Q1016 NOSIG
06:00
M
5 °C 10 km+ 2.700 ft 320° 320° 6 kt METAR SCCI 180900Z 32006KT 9999 BKN027 05/03 Q1016 NOSIG
05:00
M
4 °C 10 km+ 2.700 ft 310° 310° 4 kt METAR SCCI 180800Z 31004KT 9999 BKN027 04/03 Q1016 NOSIG
04:00
M
4 °C 10 km+ 2.500 ft 010° 010° 3 kt METAR SCCI 180700Z 01003KT 9999 BKN025 04/03 Q1017 NOSIG
03:00
M
6 °C 10 km+ 3.000 ft 270° 270° 3 kt METAR SCCI 180600Z 27003KT 9999 BKN030 06/03 Q1016 NOSIG
02:00
V
4 °C 10 km+ - 340° 340° 3 kt METAR SCCI 180500Z 34003KT 9999 FEW016 04/03 Q1017 NOSIG
01:00
V
5 °C 10 km+ - 290° 290° 4 kt METAR SCCI 180400Z 29004KT CAVOK 05/03 Q1017 NOSIG
00:00
V
7 °C 10 km+ - 290° 290° 11 kt METAR SCCI 180300Z 29011KT CAVOK 07/04 Q1017 NOSIG

17 maja 2024

Czas Kod Pogoda Temp. Widoczność Sufit Wiatr METAR/SPECI
23:00
V
7 °C 10 km+ 12.000 ft 290° 290° 15 kt METAR SCCI 180200Z 29015KT 9999 FEW030 BKN120 07/04 Q1017 NOSIG
22:00
V
7 °C 10 km+ 13.000 ft 270° 270° 11 kt METAR SCCI 180100Z 27011KT 9999 FEW030 BKN130 07/04 Q1017 NOSIG
21:00
V
5 °C 10 km+ - 290° 290° 8 kt METAR SCCI 180000Z 29008KT 9999 FEW030 SCT040 05/04 Q1017 NOSIG
20:00
V
6 °C 10 km+ 11.000 ft 250° 250° 9 kt METAR SCCI 172300Z 25009KT 9999 SCT042 BKN110 06/04 Q1017 NOSIG
19:00
V
7 °C 10 km+ 11.000 ft 260° 260° 10 kt METAR SCCI 172200Z 26010KT 9999 FEW036 BKN110 07/03 Q1017 NOSIG
18:00
V
7 °C 10 km+ 20.000 ft 260° 260° 8 kt METAR SCCI 172100Z 26008KT 9999 FEW036 SCT120 BKN200 07/03 Q1017 NOSIG
17:00
V
9 °C 10 km+ 23.000 ft 260° 260° 14 kt METAR SCCI 172000Z 26014KT 9999 SCT033 BKN230 09/02 Q1017 NOSIG
16:00
V
9 °C 10 km+ 25.000 ft 260° 260° 13 kt METAR SCCI 171900Z 26013KT 9999 FEW035 BKN250 09/02 Q1017 NOSIG
15:00
V
9 °C 10 km+ 20.000 ft 260° 260° 16 kt METAR SCCI 171800Z 26016KT 9999 FEW040 BKN200 09/02 Q1017 NOSIG
14:00
V
9 °C 10 km+ - 260° 260° 15 kt METAR SCCI 171700Z 26015KT CAVOK 09/02 Q1017 NOSIG
13:00
V
8 °C 10 km+ - 270° 270° 9 kt METAR SCCI 171600Z 27009KT CAVOK 08/02 Q1018 NOSIG
12:00
V
8 °C 10 km+ - 250° 250° 10 kt METAR SCCI 171500Z 25010KT CAVOK 08/02 Q1018 NOSIG
11:00
V
5 °C 10 km+ - 270° 270° 12 kt METAR SCCI 171400Z 27012KT CAVOK 05/02 Q1018 NOSIG
10:00
V
2 °C 10 km+ - 270° 270° 7 kt METAR SCCI 171300Z 27007KT 9999 FEW049 SCT200 02/01 Q1018 NOSIG
09:00
V
3 °C 10 km+ - 270° 270° 7 kt METAR SCCI 171200Z 27007KT 9999 FEW049 SCT200 03/02 Q1018 NOSIG
08:00
V
4 °C 10 km+ - 290° 290° 8 kt METAR SCCI 171100Z 29008KT CAVOK 04/02 Q1018 NOSIG
07:00
V
4 °C 10 km+ - 280° 280° 10 kt METAR SCCI 171000Z 28010KT 9999 FEW040 04/03 Q1018 NOSIG
06:00
V
4 °C 10 km+ - 270° 270° 6 kt METAR SCCI 170900Z 27006KT CAVOK 04/03 Q1017 NOSIG
05:00
V
4 °C 10 km+ - 270° 270° 7 kt METAR SCCI 170800Z 27007KT CAVOK 04/03 Q1017 NOSIG
04:00
V
4 °C 10 km+ 20.000 ft 300° 300° 9 kt METAR SCCI 170700Z 30009KT 9999 FEW040 BKN200 04/03 Q1018 NOSIG
03:00
V
4 °C 10 km+ - 310° 310° 11 kt METAR SCCI 170600Z 31011KT CAVOK 04/03 Q1018 NOSIG
Zgłoś zmianę